createdAt,value
2019-04-07T00:00:10.723Z,75.40
2019-04-07T00:01:46.925Z,75.30
2019-04-07T00:03:19.580Z,75.80
2019-04-07T00:04:52.283Z,75.90
2019-04-07T00:06:24.699Z,75.70
2019-04-07T00:07:57.435Z,75.50
2019-04-07T00:09:29.681Z,75.60
2019-04-07T00:11:02.324Z,75.80
2019-04-07T00:12:35.819Z,75.70
2019-04-07T00:14:08.337Z,75.60
2019-04-07T00:15:40.706Z,75.40
2019-04-07T00:17:13.682Z,75.80
2019-04-07T00:18:46.234Z,75.50
2019-04-07T00:20:19.821Z,75.80
2019-04-07T00:21:52.114Z,75.50
2019-04-07T00:23:24.353Z,75.70
2019-04-07T00:24:58.363Z,75.60
2019-04-07T00:26:31.161Z,75.90
2019-04-07T00:28:04.087Z,75.60
2019-04-07T00:29:36.640Z,75.70
2019-04-07T00:31:09.105Z,76.10
2019-04-07T00:32:41.383Z,76.00
2019-04-07T00:34:13.833Z,76.20
2019-04-07T00:35:46.112Z,76.30
2019-04-07T00:37:18.347Z,76.00
2019-04-07T00:38:50.716Z,76.60
2019-04-07T00:40:23.019Z,76.20
2019-04-07T00:41:55.309Z,76.50
2019-04-07T00:43:27.531Z,76.60
2019-04-07T00:44:59.815Z,76.60
2019-04-07T00:46:32.257Z,77.00
2019-04-07T00:48:04.447Z,77.70
2019-04-07T00:49:36.886Z,76.90
2019-04-07T00:51:09.084Z,76.50
2019-04-07T00:52:41.376Z,76.50
2019-04-07T00:54:13.503Z,76.40
2019-04-07T00:55:45.586Z,76.30
2019-04-07T00:57:17.730Z,76.10
2019-04-07T00:58:49.956Z,76.90
2019-04-07T01:00:24.425Z,77.30
2019-04-07T01:01:56.791Z,76.30
2019-04-07T01:03:29.173Z,76.40
2019-04-07T01:05:01.744Z,76.50
2019-04-07T01:06:34.224Z,76.50
2019-04-07T01:08:06.498Z,76.40
2019-04-07T01:09:38.718Z,76.80
2019-04-07T01:11:11.328Z,76.50
2019-04-07T01:12:43.729Z,76.40
2019-04-07T01:14:16.039Z,76.60
2019-04-07T01:15:48.437Z,76.40
2019-04-07T01:17:20.715Z,76.60
2019-04-07T01:18:53.456Z,76.70
2019-04-07T01:20:25.979Z,77.70
2019-04-07T01:21:58.215Z,76.70
2019-04-07T01:23:30.351Z,76.30
2019-04-07T01:25:03.100Z,76.80
2019-04-07T01:26:37.212Z,76.70
2019-04-07T01:28:09.827Z,76.80
2019-04-07T01:29:42.099Z,76.50
2019-04-07T01:31:14.375Z,76.70
2019-04-07T01:32:46.736Z,76.70
2019-04-07T01:34:19.649Z,76.30
2019-04-07T01:35:52.235Z,76.10
2019-04-07T01:37:24.492Z,76.30
2019-04-07T01:38:56.580Z,76.50
2019-04-07T01:40:28.888Z,76.50
2019-04-07T01:42:19.239Z,76.50
2019-04-07T01:43:57.477Z,76.40
2019-04-07T01:45:49.947Z,76.80
2019-04-07T01:47:28.115Z,76.70
2019-04-07T01:49:12.920Z,77.00
2019-04-07T01:50:59.332Z,76.50
2019-04-07T01:52:48.068Z,76.70
2019-04-07T01:54:42.806Z,76.80
2019-04-07T01:56:34.599Z,76.80
2019-04-07T01:58:41.652Z,76.70
2019-04-07T02:00:24.920Z,76.60
2019-04-07T02:02:09.783Z,76.20
2019-04-07T02:03:57.526Z,76.10
2019-04-07T02:05:56.808Z,76.00
2019-04-07T02:07:31.123Z,76.10
2019-04-07T02:09:34.999Z,75.80
2019-04-07T02:11:36.057Z,75.70
2019-04-07T02:13:16.579Z,75.50
2019-04-07T02:15:02.135Z,75.50
2019-04-07T02:16:45.509Z,75.70
2019-04-07T02:18:37.838Z,75.90
2019-04-07T02:20:52.196Z,75.90
2019-04-07T02:22:35.343Z,75.70
2019-04-07T02:24:39.886Z,75.40
2019-04-07T02:26:17.806Z,75.50
2019-04-07T02:28:18.767Z,75.20
2019-04-07T02:29:58.870Z,75.20
2019-04-07T02:31:50.786Z,75.10
2019-04-07T02:33:45.732Z,75.00
2019-04-07T02:35:43.557Z,75.00
2019-04-07T02:37:31.243Z,75.00
2019-04-07T02:39:15.260Z,74.80
2019-04-07T02:41:06.174Z,75.10
2019-04-07T02:42:50.325Z,75.10
2019-04-07T02:44:45.231Z,75.00
2019-04-07T02:46:36.614Z,75.60
2019-04-07T02:48:28.616Z,75.80
2019-04-07T02:50:24.105Z,75.80
2019-04-07T02:52:31.900Z,75.90
2019-04-07T02:54:15.732Z,77.30
2019-04-07T02:56:25.678Z,76.60
2019-04-07T02:58:08.724Z,77.30
2019-04-07T02:59:59.689Z,77.60
2019-04-07T03:01:37.318Z,77.60
2019-04-07T03:03:24.798Z,78.10
2019-04-07T03:05:13.818Z,78.60
2019-04-07T03:07:24.197Z,79.40
2019-04-07T03:09:07.450Z,78.80
2019-04-07T03:10:58.617Z,78.50
2019-04-07T03:12:49.056Z,78.70
2019-04-07T03:14:37.990Z,78.90
2019-04-07T03:16:24.860Z,79.40
2019-04-07T03:18:20.186Z,79.10
2019-04-07T03:20:05.084Z,78.40
2019-04-07T03:22:09.065Z,79.40
2019-04-07T03:23:48.669Z,79.40
2019-04-07T03:26:00.824Z,79.90
2019-04-07T03:27:46.434Z,79.70
2019-04-07T03:29:38.478Z,79.40
2019-04-07T03:31:24.390Z,79.50
2019-04-07T03:33:11.080Z,79.10
2019-04-07T03:35:07.501Z,79.10
2019-04-07T03:37:18.396Z,80.40
2019-04-07T03:38:44.574Z,79.80
2019-04-07T03:40:25.650Z,78.80
2019-04-07T03:42:21.319Z,78.90
2019-04-07T03:44:10.525Z,78.70
2019-04-07T03:45:52.517Z,78.90
2019-04-07T03:47:32.472Z,79.40
2019-04-07T03:49:25.310Z,79.20
2019-04-07T03:51:17.152Z,79.20
2019-04-07T03:53:20.151Z,79.10
2019-04-07T03:55:01.484Z,79.40
2019-04-07T03:56:56.570Z,79.20
2019-04-07T03:58:54.564Z,79.10
2019-04-07T04:01:10.306Z,78.90
2019-04-07T04:02:50.549Z,78.80
2019-04-07T04:04:28.537Z,79.20
2019-04-07T04:06:20.646Z,79.00
2019-04-07T04:08:16.026Z,78.80
2019-04-07T04:10:03.301Z,78.60
2019-04-07T04:11:53.630Z,78.80
2019-04-07T04:13:32.697Z,78.80
2019-04-07T04:15:10.560Z,78.50
2019-04-07T04:16:46.205Z,78.70
2019-04-07T04:18:18.524Z,78.50
2019-04-07T04:19:51.841Z,78.80
2019-04-07T04:21:24.373Z,78.50
2019-04-07T04:22:57.180Z,78.40
2019-04-07T04:24:30.293Z,78.50
2019-04-07T04:26:02.758Z,78.80
2019-04-07T04:27:35.335Z,78.90
2019-04-07T04:29:08.298Z,78.80
2019-04-07T04:30:40.586Z,78.40
2019-04-07T04:32:13.418Z,78.90
2019-04-07T04:33:46.404Z,78.90
2019-04-07T04:35:18.967Z,78.90
2019-04-07T04:36:51.919Z,78.50
2019-04-07T04:38:25.152Z,78.10
2019-04-07T04:39:57.450Z,78.40
2019-04-07T04:41:29.815Z,78.60
2019-04-07T04:43:02.805Z,78.50
2019-04-07T04:44:35.916Z,78.10
2019-04-07T04:46:09.967Z,78.50
2019-04-07T04:47:42.900Z,78.10
2019-04-07T04:49:15.172Z,79.20
2019-04-07T04:50:47.406Z,78.40
2019-04-07T04:52:20.576Z,78.60
2019-04-07T04:53:53.716Z,78.60
2019-04-07T04:55:26.030Z,78.50
2019-04-07T04:56:58.910Z,78.40
2019-04-07T04:58:32.188Z,78.30
2019-04-07T05:00:06.493Z,78.20
2019-04-07T05:01:38.655Z,78.20
2019-04-07T05:03:10.979Z,78.60
2019-04-07T05:04:43.746Z,78.60
2019-04-07T05:06:16.828Z,78.50
2019-04-07T05:07:57.715Z,78.10
2019-04-07T05:09:23.248Z,78.60
2019-04-07T05:10:56.600Z,78.90
2019-04-07T05:12:28.884Z,79.10
2019-04-07T05:14:01.017Z,78.90
2019-04-07T05:15:33.232Z,78.60
2019-04-07T05:17:05.443Z,78.60
2019-04-07T05:18:38.282Z,78.30
2019-04-07T05:20:10.993Z,77.90
2019-04-07T05:21:43.611Z,78.20
2019-04-07T05:23:16.357Z,78.40
2019-04-07T05:24:48.831Z,78.10
2019-04-07T05:26:23.940Z,78.10
2019-04-07T05:27:57.002Z,78.10
2019-04-07T05:29:29.246Z,78.30
2019-04-07T05:31:01.502Z,78.00
2019-04-07T05:32:33.678Z,77.90
2019-04-07T05:34:06.574Z,77.80
2019-04-07T05:35:39.524Z,77.80
2019-04-07T05:37:11.914Z,77.80
2019-04-07T05:38:44.558Z,77.50
2019-04-07T05:40:16.970Z,77.60
2019-04-07T05:41:49.104Z,77.60
2019-04-07T05:43:21.544Z,77.60
2019-04-07T05:44:53.716Z,77.50
2019-04-07T05:46:28.070Z,77.60
2019-04-07T05:48:00.098Z,77.30
2019-04-07T05:49:32.518Z,77.40
2019-04-07T05:51:05.516Z,77.10
2019-04-07T05:52:39.796Z,77.00
2019-04-07T05:54:12.454Z,77.40
2019-04-07T05:55:44.909Z,76.40
2019-04-07T05:57:17.271Z,77.10
2019-04-07T05:58:49.427Z,77.20
2019-04-07T06:00:21.864Z,77.20
2019-04-07T06:01:58.445Z,77.20
2019-04-07T06:03:28.375Z,77.00
2019-04-07T06:05:01.189Z,76.90
2019-04-07T06:06:33.373Z,76.60
2019-04-07T06:08:20.900Z,76.50
2019-04-07T06:09:40.422Z,76.60
2019-04-07T06:11:12.786Z,76.70
2019-04-07T06:12:47.391Z,76.80
2019-04-07T06:14:19.327Z,76.50
2019-04-07T06:15:53.115Z,76.60
2019-04-07T06:17:26.387Z,76.80
2019-04-07T06:19:03.684Z,76.40
2019-04-07T06:20:33.610Z,76.40
2019-04-07T06:22:07.643Z,76.60
2019-04-07T06:23:40.715Z,76.70
2019-04-07T06:25:13.163Z,76.80
2019-04-07T06:26:49.688Z,76.80
2019-04-07T06:28:20.733Z,76.80
2019-04-07T06:29:57.151Z,76.50
2019-04-07T06:31:31.281Z,76.30
2019-04-07T06:33:01.686Z,76.50
2019-04-07T06:34:33.977Z,76.20
2019-04-07T06:36:06.255Z,76.20
2019-04-07T06:37:38.682Z,76.10
2019-04-07T06:39:11.091Z,75.90
2019-04-07T06:40:43.739Z,75.90
2019-04-07T06:42:16.008Z,75.70
2019-04-07T06:43:48.119Z,75.50
2019-04-07T06:45:24.459Z,75.70
2019-04-07T06:47:17.480Z,75.60
2019-04-07T06:49:12.275Z,75.70
2019-04-07T06:51:01.457Z,75.20
2019-04-07T06:52:43.530Z,75.40
2019-04-07T06:54:34.148Z,75.20
2019-04-07T06:56:32.206Z,75.10
2019-04-07T06:58:22.380Z,75.00
2019-04-07T07:00:25.526Z,75.00
2019-04-07T07:02:32.778Z,74.70
2019-04-07T07:04:28.080Z,74.70
2019-04-07T07:06:18.607Z,74.60
2019-04-07T07:08:10.379Z,75.60
2019-04-07T07:10:01.043Z,74.70
2019-04-07T07:12:20.607Z,74.70
2019-04-07T07:14:01.075Z,74.40
2019-04-07T07:15:52.944Z,74.20
2019-04-07T07:17:33.040Z,74.20
2019-04-07T07:19:24.450Z,74.10
2019-04-07T07:21:15.234Z,74.10
2019-04-07T07:22:52.665Z,73.90
2019-04-07T07:24:25.708Z,73.60
2019-04-07T07:26:02.841Z,73.80
2019-04-07T07:27:33.012Z,73.80
2019-04-07T07:29:06.381Z,74.30
2019-04-07T07:30:39.162Z,74.50
2019-04-07T07:32:11.599Z,73.60
2019-04-07T07:33:44.695Z,73.50
2019-04-07T07:35:17.961Z,73.10
2019-04-07T07:36:54.242Z,72.20
2019-04-07T07:38:24.627Z,72.20
2019-04-07T07:39:56.967Z,72.50
2019-04-07T07:41:29.282Z,72.90
2019-04-07T07:43:02.245Z,72.80
2019-04-07T07:44:38.180Z,72.80
2019-04-07T07:46:08.750Z,72.60
2019-04-07T07:47:41.602Z,73.30
2019-04-07T07:49:14.717Z,72.60
2019-04-07T07:50:47.119Z,72.70
2019-04-07T07:52:21.815Z,72.70
2019-04-07T07:53:57.139Z,71.90
2019-04-07T07:55:30.633Z,72.30
2019-04-07T07:57:02.428Z,71.80
2019-04-07T07:58:35.506Z,72.20
2019-04-07T08:00:08.473Z,71.80
2019-04-07T08:01:45.254Z,70.60
2019-04-07T08:03:16.550Z,68.40
2019-04-07T08:04:49.963Z,67.30
2019-04-07T08:06:22.238Z,65.30
2019-04-07T08:07:55.159Z,64.70
2019-04-07T08:09:28.313Z,62.20
2019-04-07T08:11:02.630Z,61.20
2019-04-07T08:12:35.804Z,61.00
2019-04-07T08:14:08.826Z,60.30
2019-04-07T08:15:41.597Z,59.50
2019-04-07T08:17:13.856Z,57.90
2019-04-07T08:18:47.723Z,58.90
2019-04-07T08:20:19.955Z,58.50
2019-04-07T08:21:52.076Z,56.20
2019-04-07T08:23:25.309Z,55.50
2019-04-07T08:24:57.706Z,57.00
2019-04-07T08:26:30.018Z,56.30
2019-04-07T08:28:04.492Z,56.70
2019-04-07T08:29:37.549Z,56.20
2019-04-07T08:31:11.057Z,54.80
2019-04-07T08:32:43.296Z,55.60
2019-04-07T08:34:15.506Z,54.20
2019-04-07T08:35:48.045Z,54.40
2019-04-07T08:37:21.773Z,53.20
2019-04-07T08:38:55.837Z,53.30
2019-04-07T08:40:28.552Z,53.60
2019-04-07T08:42:01.641Z,54.50
2019-04-07T08:43:35.175Z,51.40
2019-04-07T08:45:08.195Z,53.10
2019-04-07T08:46:42.878Z,52.60
2019-04-07T08:48:18.218Z,52.80
2019-04-07T08:49:49.497Z,51.70
2019-04-07T08:51:22.388Z,51.70
2019-04-07T08:52:55.359Z,50.20
2019-04-07T08:54:28.553Z,49.80
2019-04-07T08:56:00.830Z,50.50
2019-04-07T08:57:33.092Z,50.90
2019-04-07T08:59:07.923Z,51.00
2019-04-07T09:00:42.524Z,50.80
2019-04-07T09:02:15.146Z,48.50
2019-04-07T09:03:47.342Z,49.10
2019-04-07T09:05:22.432Z,47.00
2019-04-07T09:06:53.742Z,47.30
2019-04-07T09:08:26.202Z,47.20
2019-04-07T09:09:58.724Z,48.30
2019-04-07T09:11:32.109Z,47.40
2019-04-07T09:13:08.003Z,46.40
2019-04-07T09:14:39.844Z,47.30
2019-04-07T09:16:26.686Z,46.70
2019-04-07T09:18:06.227Z,46.20
2019-04-07T09:20:10.673Z,45.10
2019-04-07T09:22:08.539Z,44.90
2019-04-07T09:24:00.699Z,46.50
2019-04-07T09:25:52.584Z,45.60
2019-04-07T09:27:35.295Z,45.20
2019-04-07T09:29:39.290Z,44.90
2019-04-07T09:31:30.341Z,44.50
2019-04-07T09:33:28.678Z,42.70
2019-04-07T09:35:12.788Z,42.50
2019-04-07T09:36:55.528Z,43.00
2019-04-07T09:39:06.743Z,40.30
2019-04-07T09:40:54.384Z,40.30
2019-04-07T09:42:41.791Z,41.30
2019-04-07T09:44:30.875Z,42.90
2019-04-07T09:46:20.295Z,42.10
2019-04-07T09:48:17.732Z,39.50
2019-04-07T09:50:27.823Z,42.10
2019-04-07T09:52:11.269Z,40.70
2019-04-07T09:53:58.715Z,37.00
2019-04-07T09:55:41.148Z,38.10
2019-04-07T09:57:31.476Z,38.30
2019-04-07T09:59:23.952Z,37.80
2019-04-07T10:01:07.213Z,39.90
2019-04-07T10:03:16.215Z,40.20
2019-04-07T10:05:17.139Z,40.90
2019-04-07T10:07:16.172Z,40.20
2019-04-07T10:09:14.545Z,40.00
2019-04-07T10:11:18.262Z,38.30
2019-04-07T10:13:10.013Z,38.90
2019-04-07T10:14:54.033Z,38.40
2019-04-07T10:16:54.859Z,36.70
2019-04-07T10:18:49.297Z,38.30
2019-04-07T10:20:42.937Z,36.00
2019-04-07T10:22:37.380Z,37.10
2019-04-07T10:24:28.038Z,37.70
2019-04-07T10:26:28.538Z,35.60
2019-04-07T10:28:14.462Z,35.50
2019-04-07T10:30:04.706Z,36.70
2019-04-07T10:32:14.982Z,36.90
2019-04-07T10:34:00.467Z,34.40
2019-04-07T10:35:52.494Z,38.60
2019-04-07T10:37:37.893Z,37.80
2019-04-07T10:39:18.691Z,38.70
2019-04-07T10:40:57.684Z,35.90
2019-04-07T10:42:46.312Z,37.70
2019-04-07T10:44:50.489Z,34.70
2019-04-07T10:46:42.724Z,36.50
2019-04-07T10:48:38.904Z,36.30
2019-04-07T10:50:42.747Z,36.80
2019-04-07T10:52:24.122Z,35.90
2019-04-07T10:54:31.402Z,38.10
2019-04-07T10:56:23.288Z,38.70
2019-04-07T10:58:15.236Z,36.20
2019-04-07T11:00:13.430Z,34.50
2019-04-07T11:02:14.495Z,38.50
2019-04-07T11:04:15.588Z,37.10
2019-04-07T11:06:10.485Z,35.00
2019-04-07T11:08:00.850Z,36.60
2019-04-07T11:09:52.088Z,38.30
2019-04-07T11:12:02.097Z,36.90
2019-04-07T11:13:53.458Z,35.60
2019-04-07T11:15:34.077Z,35.80
2019-04-07T11:17:26.048Z,36.50
2019-04-07T11:19:16.146Z,36.90
2019-04-07T11:21:06.681Z,36.30
2019-04-07T11:22:47.672Z,35.70
2019-04-07T11:24:45.805Z,37.20
2019-04-07T11:26:37.719Z,38.60
2019-04-07T11:28:33.837Z,38.30
2019-04-07T11:30:14.738Z,37.40
2019-04-07T11:31:59.235Z,39.40
2019-04-07T11:34:04.334Z,37.10
2019-04-07T11:35:45.575Z,37.90
2019-04-07T11:37:25.425Z,37.60
2019-04-07T11:39:13.499Z,36.90
2019-04-07T11:40:55.433Z,36.40
2019-04-07T11:42:37.633Z,35.00
2019-04-07T11:44:21.616Z,32.80
2019-04-07T11:46:03.479Z,37.70
2019-04-07T11:47:45.977Z,37.00
2019-04-07T11:49:36.692Z,37.40
2019-04-07T11:51:14.960Z,36.90
2019-04-07T11:52:53.455Z,36.70
2019-04-07T11:54:47.964Z,35.60
2019-04-07T11:56:27.452Z,34.60
2019-04-07T11:58:25.989Z,37.30
2019-04-07T12:00:18.485Z,37.60
2019-04-07T12:02:03.682Z,37.20
2019-04-07T12:03:52.563Z,39.10
2019-04-07T12:05:44.181Z,38.40
2019-04-07T12:07:34.713Z,39.20
2019-04-07T12:09:45.510Z,39.10
2019-04-07T12:11:46.503Z,40.40
2019-04-07T12:13:43.964Z,38.80
2019-04-07T12:15:34.798Z,38.90
2019-04-07T12:17:41.816Z,39.40
2019-04-07T12:19:30.560Z,40.00
2019-04-07T12:21:21.595Z,40.70
2019-04-07T12:22:50.559Z,40.30
2019-04-07T12:24:50.278Z,39.90
2019-04-07T12:26:39.480Z,39.20
2019-04-07T12:28:33.383Z,40.80
2019-04-07T12:30:28.980Z,40.00
2019-04-07T12:32:10.357Z,40.30
2019-04-07T12:34:02.863Z,41.40
2019-04-07T12:36:00.054Z,41.40
2019-04-07T12:38:01.527Z,41.50
2019-04-07T12:39:56.512Z,40.80
2019-04-07T12:41:44.739Z,42.30
2019-04-07T12:43:36.593Z,40.60
2019-04-07T12:45:29.992Z,41.00
2019-04-07T12:47:30.924Z,41.40
2019-04-07T12:49:20.674Z,41.60
2019-04-07T12:51:03.146Z,41.70
2019-04-07T12:52:54.025Z,41.70
2019-04-07T12:54:33.136Z,41.60
2019-04-07T12:56:25.400Z,41.10
2019-04-07T12:58:11.402Z,42.30
2019-04-07T13:00:01.614Z,43.00
2019-04-07T13:01:43.816Z,43.30
2019-04-07T13:03:25.377Z,43.60
2019-04-07T13:05:24.128Z,42.30
2019-04-07T13:07:17.089Z,41.50
2019-04-07T13:09:14.946Z,43.00
2019-04-07T13:11:11.856Z,44.10
2019-04-07T13:13:02.669Z,43.30
2019-04-07T13:14:57.352Z,42.80
2019-04-07T13:16:52.882Z,42.10
2019-04-07T13:18:42.468Z,41.90
2019-04-07T13:20:28.792Z,43.30
2019-04-07T13:22:15.129Z,43.50
2019-04-07T13:24:11.154Z,43.70
2019-04-07T13:25:53.235Z,44.10
2019-04-07T13:27:46.894Z,44.00
2019-04-07T13:29:28.119Z,43.00
2019-04-07T13:31:15.792Z,43.50
2019-04-07T13:33:08.100Z,45.00
2019-04-07T13:35:02.713Z,45.00
2019-04-07T13:37:01.280Z,44.50
2019-04-07T13:38:41.501Z,43.70
2019-04-07T13:40:27.181Z,44.00
2019-04-07T13:42:09.876Z,44.90
2019-04-07T13:44:04.672Z,42.30
2019-04-07T13:45:55.740Z,42.50
2019-04-07T13:47:43.293Z,43.60
2019-04-07T13:49:27.424Z,42.50
2019-04-07T13:51:25.204Z,43.40
2019-04-07T13:53:08.927Z,42.90
2019-04-07T13:54:59.987Z,43.30
2019-04-07T13:57:02.315Z,43.50
2019-04-07T13:58:46.630Z,43.50
2019-04-07T14:00:37.118Z,43.50
2019-04-07T14:02:30.357Z,42.60
2019-04-07T14:04:13.171Z,43.10
2019-04-07T14:06:12.235Z,43.70
2019-04-07T14:08:00.013Z,43.80
2019-04-07T14:09:54.693Z,43.10
2019-04-07T14:11:56.348Z,43.00
2019-04-07T14:13:40.407Z,43.60
2019-04-07T14:15:32.313Z,43.50
2019-04-07T14:17:22.950Z,43.80
2019-04-07T14:19:13.509Z,44.10
2019-04-07T14:20:52.951Z,43.80
2019-04-07T14:22:50.527Z,43.60
2019-04-07T14:24:42.505Z,43.10
2019-04-07T14:26:37.721Z,43.60
2019-04-07T14:28:29.838Z,43.30
2019-04-07T14:30:13.658Z,42.00
2019-04-07T14:31:59.433Z,43.70
2019-04-07T14:34:00.643Z,43.60
2019-04-07T14:35:51.385Z,43.80
2019-04-07T14:37:43.229Z,44.30
2019-04-07T14:39:31.477Z,43.80
2019-04-07T14:41:21.852Z,43.50
2019-04-07T14:43:01.164Z,44.00
2019-04-07T14:44:56.611Z,42.80
2019-04-07T14:46:49.009Z,43.50
2019-04-07T14:48:44.799Z,44.10
2019-04-07T14:50:29.210Z,44.00
2019-04-07T14:52:16.280Z,43.90
2019-04-07T14:54:07.059Z,43.50
2019-04-07T14:55:54.270Z,43.50
2019-04-07T14:57:39.080Z,43.60
2019-04-07T14:59:28.566Z,43.30
2019-04-07T15:01:10.784Z,43.00
2019-04-07T15:02:43.034Z,43.20
2019-04-07T15:04:15.305Z,43.10
2019-04-07T15:05:48.377Z,42.90
2019-04-07T15:07:38.942Z,43.40
2019-04-07T15:09:18.801Z,43.40
2019-04-07T15:10:53.474Z,43.70
2019-04-07T15:12:35.954Z,43.40
2019-04-07T15:14:08.334Z,43.80
2019-04-07T15:15:41.655Z,42.90
2019-04-07T15:17:14.565Z,43.30
2019-04-07T15:18:47.091Z,43.30
2019-04-07T15:20:19.665Z,43.10
2019-04-07T15:21:54.221Z,43.30
2019-04-07T15:23:29.424Z,43.40
2019-04-07T15:25:00.166Z,43.30
2019-04-07T15:26:32.614Z,43.60
2019-04-07T15:28:04.788Z,43.20
2019-04-07T15:29:40.808Z,43.80
2019-04-07T15:31:11.748Z,43.80
2019-04-07T15:32:44.118Z,43.30
2019-04-07T15:34:16.290Z,43.90
2019-04-07T15:35:50.176Z,43.60
2019-04-07T15:37:24.705Z,43.70
2019-04-07T15:38:58.129Z,43.40
2019-04-07T15:40:33.936Z,43.90
2019-04-07T15:42:05.217Z,44.10
2019-04-07T15:43:38.279Z,42.90
2019-04-07T15:45:12.192Z,43.40
2019-04-07T15:46:49.065Z,44.30
2019-04-07T15:48:19.156Z,44.00
2019-04-07T15:49:52.952Z,43.80
2019-04-07T15:51:25.086Z,44.20
2019-04-07T15:52:57.299Z,44.10
2019-04-07T15:54:29.721Z,44.20
2019-04-07T15:56:06.367Z,44.10
2019-04-07T15:57:36.176Z,44.00
2019-04-07T15:59:08.775Z,44.30
2019-04-07T16:00:41.929Z,44.20
2019-04-07T16:02:14.304Z,43.90
2019-04-07T16:03:50.504Z,43.70
2019-04-07T16:05:21.507Z,44.30
2019-04-07T16:06:54.385Z,43.60
2019-04-07T16:08:28.797Z,44.40
2019-04-07T16:10:01.789Z,44.40
2019-04-07T16:11:34.901Z,44.30
2019-04-07T16:13:07.341Z,44.40
2019-04-07T16:14:42.327Z,45.10
2019-04-07T16:16:14.530Z,44.40
2019-04-07T16:17:47.597Z,43.80
2019-04-07T16:19:33.062Z,44.30
2019-04-07T16:20:54.265Z,43.90
2019-04-07T16:22:27.710Z,44.10
2019-04-07T16:24:02.854Z,43.90
2019-04-07T16:25:35.127Z,43.60
2019-04-07T16:27:08.124Z,44.00
2019-04-07T16:28:44.519Z,44.60
2019-04-07T16:30:17.364Z,44.30
2019-04-07T16:31:49.992Z,43.90
2019-04-07T16:33:22.340Z,44.20
2019-04-07T16:34:54.430Z,44.40
2019-04-07T16:36:26.711Z,44.30
2019-04-07T16:38:01.212Z,44.20
2019-04-07T16:39:34.612Z,43.90
2019-04-07T16:41:07.894Z,43.60
2019-04-07T16:42:40.448Z,44.10
2019-04-07T16:44:12.782Z,43.60
2019-04-07T16:45:45.943Z,43.90
2019-04-07T16:47:24.900Z,43.80
2019-04-07T16:48:55.589Z,44.60
2019-04-07T16:50:28.191Z,45.00
2019-04-07T16:52:02.189Z,45.90
2019-04-07T16:53:37.953Z,45.20
2019-04-07T16:55:31.567Z,45.20
2019-04-07T16:57:03.689Z,45.50
2019-04-07T16:58:38.748Z,45.30
2019-04-07T17:00:14.325Z,44.90
2019-04-07T17:01:47.428Z,44.60
2019-04-07T17:03:20.432Z,45.50
2019-04-07T17:04:53.857Z,45.40
2019-04-07T17:06:31.342Z,45.20
2019-04-07T17:08:01.652Z,45.10
2019-04-07T17:09:35.467Z,45.70
2019-04-07T17:11:08.184Z,45.70
2019-04-07T17:12:40.748Z,45.90
2019-04-07T17:14:14.176Z,45.90
2019-04-07T17:15:46.413Z,45.40
2019-04-07T17:17:21.696Z,45.10
2019-04-07T17:18:55.387Z,45.60
2019-04-07T17:20:28.418Z,46.00
2019-04-07T17:22:01.831Z,46.30
2019-04-07T17:23:34.060Z,46.90
2019-04-07T17:25:09.259Z,47.20
2019-04-07T17:26:40.264Z,47.50
2019-04-07T17:28:13.941Z,47.70
2019-04-07T17:29:49.111Z,47.30
2019-04-07T17:31:20.902Z,47.70
2019-04-07T17:32:53.378Z,48.00
2019-04-07T17:34:26.182Z,48.60
2019-04-07T17:35:59.251Z,48.90
2019-04-07T17:37:31.961Z,49.00
2019-04-07T17:39:15.122Z,49.10
2019-04-07T17:40:49.243Z,49.90
2019-04-07T17:42:25.915Z,49.40
2019-04-07T17:44:16.939Z,49.30
2019-04-07T17:46:13.207Z,48.90
2019-04-07T17:48:06.137Z,49.20
2019-04-07T17:49:59.409Z,49.40
2019-04-07T17:51:47.665Z,49.40
2019-04-07T17:53:38.279Z,49.20
2019-04-07T17:55:45.863Z,48.90
2019-04-07T17:57:24.352Z,49.00
2019-04-07T17:59:19.006Z,49.40
2019-04-07T18:01:08.856Z,49.20
2019-04-07T18:03:07.595Z,49.60
2019-04-07T18:05:02.409Z,49.80
2019-04-07T18:07:05.853Z,50.20
2019-04-07T18:09:08.025Z,50.50
2019-04-07T18:10:57.985Z,50.60
2019-04-07T18:12:39.084Z,50.90
2019-04-07T18:14:45.906Z,50.90
2019-04-07T18:16:37.747Z,51.10
2019-04-07T18:18:38.405Z,51.30
2019-04-07T18:20:22.946Z,51.40
2019-04-07T18:22:21.421Z,51.60
2019-04-07T18:24:18.208Z,51.60
2019-04-07T18:25:55.677Z,52.00
2019-04-07T18:27:34.948Z,52.00
2019-04-07T18:29:32.825Z,51.90
2019-04-07T18:31:24.571Z,52.10
2019-04-07T18:33:19.305Z,52.20
2019-04-07T18:35:19.334Z,51.90
2019-04-07T18:37:14.806Z,51.40
2019-04-07T18:39:18.197Z,51.70
2019-04-07T18:41:03.185Z,52.20
2019-04-07T18:42:46.678Z,52.50
2019-04-07T18:44:41.433Z,52.50
2019-04-07T18:46:33.512Z,52.70
2019-04-07T18:48:31.890Z,53.10
2019-04-07T18:50:24.965Z,53.00
2019-04-07T18:52:05.732Z,53.00
2019-04-07T18:53:59.715Z,53.00
2019-04-07T18:55:57.912Z,52.90
2019-04-07T18:57:48.897Z,53.30
2019-04-07T18:59:41.080Z,53.40
2019-04-07T19:01:42.707Z,53.40
2019-04-07T19:03:36.195Z,53.50
2019-04-07T19:05:38.026Z,53.70
2019-04-07T19:07:45.888Z,54.00
2019-04-07T19:09:45.579Z,53.70
2019-04-07T19:11:47.234Z,53.30
2019-04-07T19:13:35.829Z,53.30
2019-04-07T19:15:36.570Z,53.70
2019-04-07T19:17:17.036Z,54.00
2019-04-07T19:19:12.621Z,54.20
2019-04-07T19:21:09.840Z,54.50
2019-04-07T19:23:04.401Z,54.70
2019-04-07T19:24:54.572Z,55.00
2019-04-07T19:26:56.187Z,55.70
2019-04-07T19:28:40.308Z,56.00
2019-04-07T19:30:43.654Z,55.90
2019-04-07T19:32:25.870Z,55.90
2019-04-07T19:34:10.370Z,56.20
2019-04-07T19:36:03.327Z,56.00
2019-04-07T19:37:54.017Z,55.70
2019-04-07T19:39:42.891Z,55.60
2019-04-07T19:41:43.458Z,55.40
2019-04-07T19:43:30.399Z,55.50
2019-04-07T19:45:26.953Z,55.70
2019-04-07T19:47:24.596Z,55.90
2019-04-07T19:49:20.449Z,55.60
2019-04-07T19:51:08.769Z,55.60
2019-04-07T19:53:03.838Z,56.20
2019-04-07T19:54:51.526Z,55.60
2019-04-07T19:56:58.648Z,55.90
2019-04-07T19:58:49.073Z,56.20
2019-04-07T20:00:37.255Z,56.60
2019-04-07T20:02:30.402Z,56.60
2019-04-07T20:04:20.513Z,56.60
2019-04-07T20:06:17.001Z,56.60
2019-04-07T20:08:20.522Z,56.80
2019-04-07T20:10:04.764Z,57.10
2019-04-07T20:12:08.976Z,57.30
2019-04-07T20:14:00.702Z,57.40
2019-04-07T20:15:57.662Z,58.10
2019-04-07T20:18:00.984Z,58.00
2019-04-07T20:19:51.526Z,58.20
2019-04-07T20:21:58.221Z,58.40
2019-04-07T20:23:56.422Z,58.80
2019-04-07T20:25:54.284Z,58.90
2019-04-07T20:27:36.147Z,59.60
2019-04-07T20:29:35.351Z,59.60
2019-04-07T20:31:34.307Z,59.70
2019-04-07T20:33:16.928Z,59.90
2019-04-07T20:35:08.698Z,60.00
2019-04-07T20:36:56.170Z,60.10
2019-04-07T20:38:51.181Z,60.40
2019-04-07T20:40:49.754Z,61.00
2019-04-07T20:42:36.708Z,61.10
2019-04-07T20:44:33.039Z,61.30
2019-04-07T20:46:28.137Z,61.70
2019-04-07T20:48:19.288Z,61.80
2019-04-07T20:50:17.353Z,62.00
2019-04-07T20:52:15.653Z,62.00
2019-04-07T20:54:07.750Z,62.20
2019-04-07T20:55:58.216Z,62.40
2019-04-07T20:57:46.962Z,63.30
2019-04-07T20:59:52.577Z,63.00
2019-04-07T21:01:32.151Z,63.20
2019-04-07T21:03:22.805Z,63.60
2019-04-07T21:05:04.552Z,63.40
2019-04-07T21:06:52.409Z,63.60
2019-04-07T21:08:33.362Z,63.90
2019-04-07T21:10:37.925Z,63.90
2019-04-07T21:12:34.566Z,64.60
2019-04-07T21:14:11.360Z,64.50
2019-04-07T21:16:15.514Z,64.60
2019-04-07T21:17:58.257Z,64.70
2019-04-07T21:19:54.244Z,65.00
2019-04-07T21:21:49.255Z,65.40
2019-04-07T21:23:39.271Z,65.20
2019-04-07T21:25:33.940Z,65.40
2019-04-07T21:27:26.715Z,66.30
2019-04-07T21:29:23.804Z,66.60
2019-04-07T21:31:24.295Z,66.70
2019-04-07T21:33:23.723Z,66.70
2019-04-07T21:35:05.647Z,66.80
2019-04-07T21:37:10.682Z,67.00
2019-04-07T21:39:00.710Z,66.70
2019-04-07T21:40:51.400Z,66.70
2019-04-07T21:42:43.280Z,67.00
2019-04-07T21:44:49.838Z,67.00
2019-04-07T21:46:40.928Z,66.80
2019-04-07T21:48:35.753Z,67.30
2019-04-07T21:50:28.221Z,66.90
2019-04-07T21:52:24.354Z,66.90
2019-04-07T21:54:12.996Z,67.10
2019-04-07T21:56:02.501Z,67.10
2019-04-07T21:57:57.541Z,66.50
2019-04-07T21:59:50.291Z,66.50
2019-04-07T22:01:39.906Z,66.80
2019-04-07T22:03:35.250Z,67.00
2019-04-07T22:05:31.201Z,67.20
2019-04-07T22:07:13.686Z,66.90
2019-04-07T22:08:50.382Z,66.80
2019-04-07T22:10:23.033Z,67.30
2019-04-07T22:11:56.153Z,67.30
2019-04-07T22:13:28.680Z,67.10